Terminal Aerodrome Forecast
Issued by NWS New Orleans/Baton Rouge, LA

Home | Current Version | Previous Version | Text Only | Print | Product List | Glossary On
Versions: 1 2 3 4 5 6 7 8 9 10 11 12
000
FTUS44 KLIX 281700
TAFBTR
TAF
KBTR 281739Z 2818/2918 16007KT P6SM SKC
     FM290600 17003KT P6SM FEW008=

USA.gov is the U.S. government's official web portal to all federal, state and local government web resources and services.